METAR Data
IDs: Format: Raw Decoded Include TAF

Data at: 1000 UTC 13 Aug 2022

LFMN 130930Z 11012KT 9999 FEW030 27/18 Q1013 NOSIG